Time;durP1;ratioP1;P1;durP2;ratioP2;P2;SDS_P1;SDS_P2;PMS_P1;PMS_P2;Temp;Humidity;BMP_temperature;BMP_pressure;BME280_temperature;BME280_humidity;BME280_pressure;Samples;Min_cycle;Max_cycle;Signal;HPM_P1;HPM_P2
2023/10/18 05:00:50;;;;;;;;;;;;;;;14.88;66.36;96089.75;4170466;27;1489825;-65
2023/10/18 05:02:52;;;;;;;;;;;;;;;15.20;65.88;96087.44;4209557;28;5684;-65
2023/10/18 05:04:58;;;;;;;;;;;;;;;15.40;65.28;96077.94;4214356;28;5693;-66
2023/10/18 05:07:01;;;;;;;;;;;;;;;15.59;64.96;96078.50;4210657;28;5692;-66
2023/10/18 05:09:12;;;;;;;;;;;;;;;15.73;64.56;96077.16;4214356;28;5688;-65
2023/10/18 05:11:23;;;;;;;;;;;;;;;15.87;63.99;96079.50;4212607;28;6265;-66
2023/10/18 05:13:33;;;;;;;;;;;;;;;15.97;63.82;96069.81;4214218;28;5828;-65
2023/10/18 05:15:37;;;;;;;;;;;;;;;16.05;63.56;96068.56;4213498;28;5692;-63
2023/10/18 05:17:42;;;;;;;;;;;;;;;16.12;63.31;96065.75;4214744;28;5692;-64
2023/10/18 05:19:47;;;;;;;;;;;;;;;16.16;63.07;96067.66;4213655;28;5767;-65
2023/10/18 05:21:51;;;;;;;;;;;;;;;16.22;62.77;96071.22;4201005;28;5847;-65
2023/10/18 05:23:54;;;;;;;;;;;;;;;16.24;62.66;96075.25;4213958;28;5704;-65
2023/10/18 05:26:08;;;;;;;;;;;;;;;16.26;62.55;96078.47;4213132;28;5864;-65
2023/10/18 05:28:15;;;;;;;;;;;;;;;16.30;62.42;96084.09;4216625;28;5705;-65
2023/10/18 05:30:26;;;;;;;;;;;;;;;16.35;62.25;96083.38;4210993;28;5779;-65
2023/10/18 05:32:47;;;;;;;;;;;;;;;16.38;62.04;96083.69;4217301;28;5679;-65
2023/10/18 05:34:55;;;;;;;;;;;;;;;16.39;61.99;96074.63;4205924;28;6390;-65
2023/10/18 05:37:14;;;;;;;;;;;;;;;16.42;61.79;96070.66;4213163;28;5840;-65
2023/10/18 05:39:27;;;;;;;;;;;;;;;16.44;61.70;96071.25;4208000;28;5864;-65
2023/10/18 05:41:36;;;;;;;;;;;;;;;16.44;61.58;96068.56;4214845;28;5677;-65
2023/10/18 05:43:37;;;;;;;;;;;;;;;16.44;61.64;96068.56;4214517;28;5791;-65
2023/10/18 05:45:41;;;;;;;;;;;;;;;16.46;61.54;96077.13;4210640;28;5809;-65
2023/10/18 05:47:48;;;;;;;;;;;;;;;16.48;61.38;96075.03;4215472;28;7314;-65
2023/10/18 05:49:53;;;;;;;;;;;;;;;16.50;61.21;96070.25;4210336;28;5697;-65
2023/10/18 05:52:15;;;;;;;;;;;;;;;16.52;61.25;96070.78;4212919;28;5840;-65
2023/10/18 05:54:19;;;;;;;;;;;;;;;16.52;60.99;96066.25;4213679;28;5688;-65
2023/10/18 05:56:24;;;;;;;;;;;;;;;16.52;60.99;96060.13;4213140;28;5764;-65
2023/10/18 05:58:27;;;;;;;;;;;;;;;16.54;61.06;96071.38;4212421;28;5715;-65
2023/10/18 06:00:32;;;;;;;;;;;;;;;16.56;61.08;96071.94;4228546;28;5091;-64
2023/10/18 06:02:37;;;;;;;;;;;;;;;16.57;60.93;96060.19;4211225;28;5600;-64
2023/10/18 06:04:43;;;;;;;;;;;;;;;16.58;60.73;96059.13;4212274;28;6294;-65
2023/10/18 06:06:45;;;;;;;;;;;;;;;16.58;60.63;96059.13;4223749;28;5593;-65
2023/10/18 06:08:48;;;;;;;;;;;;;;;16.58;60.67;96061.81;4219345;28;5630;-65
2023/10/18 06:10:56;;;;;;;;;;;;;;;16.58;60.57;96056.47;4213436;28;5149;-66
2023/10/18 06:13:05;;;;;;;;;;;;;;;16.59;60.46;96060.75;4219894;28;5651;-66
2023/10/18 06:15:10;;;;;;;;;;;;;;;16.61;60.47;96061.31;4220300;28;5611;-65
2023/10/18 06:17:22;;;;;;;;;;;;;;;16.60;60.44;96060.50;4219117;28;5631;-65
2023/10/18 06:19:27;;;;;;;;;;;;;;;16.61;60.45;96063.97;4220291;28;5605;-65
2023/10/18 06:21:38;;;;;;;;;;;;;;;16.61;60.35;96069.31;4220763;28;5608;-65
2023/10/18 06:23:39;;;;;;;;;;;;;;;16.61;60.38;96066.63;4219050;28;5738;-65
2023/10/18 06:25:45;;;;;;;;;;;;;;;16.58;60.22;96053.81;4224452;28;5640;-65
2023/10/18 06:27:50;;;;;;;;;;;;;;;16.59;60.39;96060.75;4218991;28;5991;-63
2023/10/18 06:29:54;;;;;;;;;;;;;;;16.59;60.16;96063.41;4217697;28;7790;-63
2023/10/18 06:31:56;;;;;;;;;;;;;;;16.60;60.24;96073.84;4223634;28;5698;-63
2023/10/18 06:34:02;;;;;;;;;;;;;;;16.61;60.22;96071.97;4217562;28;5635;-64
2023/10/18 06:36:12;;;;;;;;;;;;;;;16.63;59.85;96071.72;4218398;28;6333;-63
2023/10/18 06:38:17;;;;;;;;;;;;;;;16.64;60.02;96073.34;4214401;28;5818;-64
2023/10/18 06:40:40;;;;;;;;;;;;;;;16.64;59.99;96073.34;4217276;28;5695;-63
2023/10/18 06:43:00;;;;;;;;;;;;;;;16.67;59.82;96078.19;4208734;28;5639;-63
2023/10/18 06:45:15;;;;;;;;;;;;;;;16.66;59.83;96077.41;4212333;28;5805;-64
2023/10/18 06:47:19;;;;;;;;;;;;;;;16.66;59.72;96072.06;4212206;28;5667;-63
2023/10/18 06:49:21;;;;;;;;;;;;;;;16.67;59.68;96079.00;4219251;28;5792;-64
2023/10/18 06:51:40;;;;;;;;;;;;;;;16.69;59.67;96087.59;4220443;28;5714;-63
2023/10/18 06:53:50;;;;;;;;;;;;;;;16.69;59.65;96082.25;4202652;28;5667;-64
2023/10/18 06:55:55;;;;;;;;;;;;;;;16.69;59.70;96090.25;4221258;28;5605;-62
2023/10/18 06:58:05;;;;;;;;;;;;;;;16.70;59.49;96075.84;4214859;28;5615;-63
2023/10/18 07:00:15;;;;;;;;;;;;;;;16.71;59.47;96082.81;4220277;28;6481;-63
2023/10/18 07:02:26;;;;;;;;;;;;;;;16.72;59.54;96081.75;4220331;28;5632;-63
2023/10/18 07:04:35;;;;;;;;;;;;;;;16.72;59.41;96076.41;4218406;28;5735;-63
2023/10/18 07:06:38;;;;;;;;;;;;;;;16.73;59.44;96062.00;4221656;28;5620;-63
2023/10/18 07:08:44;;;;;;;;;;;;;;;16.72;59.38;96047.06;4218470;28;5706;-64
2023/10/18 07:10:56;;;;;;;;;;;;;;;16.72;59.26;96031.03;4209039;28;5747;-64
2023/10/18 07:13:14;;;;;;;;;;;;;;;16.73;59.31;96042.53;4214922;28;5778;-64
2023/10/18 07:15:22;;;;;;;;;;;;;;;16.74;59.12;96039.59;4209767;28;6386;-63
2023/10/18 07:17:25;;;;;;;;;;;;;;;16.77;59.20;96041.78;4218272;28;5727;-63
2023/10/18 07:19:29;;;;;;;;;;;;;;;16.79;59.01;96042.34;4209478;28;6320;-63
2023/10/18 07:21:33;;;;;;;;;;;;;;;16.81;58.85;96034.06;4217783;28;5848;-62
2023/10/18 07:23:39;;;;;;;;;;;;;;;16.79;58.95;96028.19;4225157;28;5620;-62
2023/10/18 07:25:43;;;;;;;;;;;;;;;16.77;59.02;96039.13;4202730;28;5634;-62
2023/10/18 07:28:01;;;;;;;;;;;;;;;16.81;59.03;96053.56;4217812;28;5869;-63
2023/10/18 07:30:14;;;;;;;;;;;;;;;16.83;58.95;96058.66;4209596;28;5830;-62
2023/10/18 07:32:20;;;;;;;;;;;;;;;16.84;58.86;96044.25;4219031;28;6337;-62
2023/10/18 07:34:28;;;;;;;;;;;;;;;16.86;58.76;96039.47;4221567;28;5613;-63
2023/10/18 07:36:37;;;;;;;;;;;;;;;16.86;58.64;96045.59;4230786;28;5628;-62
2023/10/18 07:38:47;;;;;;;;;;;;;;;16.87;58.70;96057.09;4201556;28;5733;-63
2023/10/18 07:40:56;;;;;;;;;;;;;;;16.87;58.62;96047.25;4205549;28;5540;-63
2023/10/18 07:43:04;;;;;;;;;;;;;;;16.87;58.62;96047.25;4217278;28;5628;-63
2023/10/18 07:45:14;;;;;;;;;;;;;;;16.90;58.60;96045.94;4218071;28;6184;-63
2023/10/18 07:47:19;;;;;;;;;;;;;;;16.91;58.36;96046.72;4216573;28;5739;-63
2023/10/18 07:49:22;;;;;;;;;;;;;;;16.89;58.30;96033.63;4217879;28;5611;-63
2023/10/18 07:51:24;;;;;;;;;;;;;;;16.86;58.27;96028.78;4221034;28;5684;-63
2023/10/18 07:53:30;;;;;;;;;;;;;;;16.82;58.26;96036.50;4235079;28;5675;-63
2023/10/18 07:55:37;;;;;;;;;;;;;;;16.79;58.12;96044.22;4219498;28;5630;-63
2023/10/18 07:57:46;;;;;;;;;;;;;;;16.80;58.28;96035.94;4229002;28;5617;-62
2023/10/18 08:00:14;;;;;;;;;;;;;;;16.82;58.19;96025.00;4233904;28;5688;-63
2023/10/18 08:02:19;;;;;;;;;;;;;;;16.81;58.20;96016.19;4206975;28;5691;-63
2023/10/18 08:04:22;;;;;;;;;;;;;;;16.84;58.08;96023.69;4215503;28;5675;-63
2023/10/18 08:06:27;;;;;;;;;;;;;;;16.84;58.14;96013.03;4216501;28;7375;-63
2023/10/18 08:08:30;;;;;;;;;;;;;;;16.86;58.03;96010.91;4216985;28;6424;-63
2023/10/18 08:10:35;;;;;;;;;;;;;;;16.84;58.26;96018.34;4217587;28;5632;-62
2023/10/18 08:12:38;;;;;;;;;;;;;;;16.89;58.08;96017.63;4217762;28;5596;-63
2023/10/18 08:14:41;;;;;;;;;;;;;;;16.89;58.04;96020.28;4217729;28;5612;-62
2023/10/18 08:16:55;;;;;;;;;;;;;;;16.92;58.02;96021.66;4217745;28;5624;-62
2023/10/18 08:18:59;;;;;;;;;;;;;;;16.95;58.00;96021.13;4216821;28;6375;-63
2023/10/18 08:21:07;;;;;;;;;;;;;;;16.98;58.03;96012.63;4221301;28;5608;-63
2023/10/18 08:23:19;;;;;;;;;;;;;;;17.00;57.90;96019.34;4217470;28;5769;-63
2023/10/18 08:25:24;;;;;;;;;;;;;;;17.04;58.00;96017.75;4217373;28;5624;-64
2023/10/18 08:27:27;;;;;;;;;;;;;;;17.08;57.91;96020.72;4217578;28;5615;-63
2023/10/18 08:29:34;;;;;;;;;;;;;;;17.10;57.76;96018.59;4215183;28;5847;-62
2023/10/18 08:31:36;;;;;;;;;;;;;;;17.11;57.73;96013.03;4200296;28;5714;-62
2023/10/18 08:33:40;;;;;;;;;;;;;;;17.14;57.70;96009.03;4217333;28;5766;-62
2023/10/18 08:35:43;;;;;;;;;;;;;;;17.15;57.69;96002.66;4223906;28;5712;-62
2023/10/18 08:37:46;;;;;;;;;;;;;;;17.17;57.69;96004.00;4217124;28;5673;-63
2023/10/18 08:39:55;;;;;;;;;;;;;;;17.20;57.66;96005.34;4208868;28;5776;-63
2023/10/18 08:42:08;;;;;;;;;;;;;;;17.24;57.63;96011.00;4217387;28;5632;-63
2023/10/18 08:44:16;;;;;;;;;;;;;;;17.24;57.69;96014.47;4213052;28;6156;-62
2023/10/18 08:46:24;;;;;;;;;;;;;;;17.26;57.57;96007.00;4217019;28;5711;-63
2023/10/18 08:48:29;;;;;;;;;;;;;;;17.27;57.56;95991.78;4214553;28;5875;-63
2023/10/18 08:50:34;;;;;;;;;;;;;;;17.28;57.46;95993.41;4221739;28;5692;-64
2023/10/18 08:52:47;;;;;;;;;;;;;;;17.30;57.40;96002.75;4216693;28;5596;-63
2023/10/18 08:54:50;;;;;;;;;;;;;;;17.33;57.45;96002.28;4204630;28;5631;-63
2023/10/18 08:56:53;;;;;;;;;;;;;;;17.35;57.49;96008.16;4211254;28;5836;-63
2023/10/18 08:58:57;;;;;;;;;;;;;;;17.35;57.25;96005.50;4213007;28;7699;-63
2023/10/18 09:01:03;;;;;;;;;;;;;;;17.37;57.28;95997.22;4216074;28;5632;-63
2023/10/18 09:03:10;;;;;;;;;;;;;;;17.40;57.13;95994.03;4215815;28;5616;-63
2023/10/18 09:05:13;;;;;;;;;;;;;;;17.43;57.11;95990.84;4215823;28;5613;-63
2023/10/18 09:07:42;;;;;;;;;;;;;;;17.44;57.11;95989.78;4216176;28;5604;-63
2023/10/18 09:09:57;;;;;;;;;;;;;;;17.43;57.12;95988.16;4209869;28;5607;-64
2023/10/18 09:12:05;;;;;;;;;;;;;;;17.43;57.08;95980.16;4215947;28;5615;-64
2023/10/18 09:14:07;;;;;;;;;;;;;;;17.43;57.08;95985.50;4216190;28;6309;-63
2023/10/18 09:16:19;;;;;;;;;;;;;;;17.43;57.00;95972.94;4210244;28;5612;-63
2023/10/18 09:18:23;;;;;;;;;;;;;;;17.44;56.98;95974.56;4216157;28;5616;-63
2023/10/18 09:20:27;;;;;;;;;;;;;;;17.48;56.88;95980.22;4215780;28;5615;-64
2023/10/18 09:22:31;;;;;;;;;;;;;;;17.48;56.77;95982.88;4215941;28;5719;-62
2023/10/18 09:24:43;;;;;;;;;;;;;;;17.48;56.78;95988.22;4215978;28;5652;-64
2023/10/18 09:26:46;;;;;;;;;;;;;;;17.50;56.54;95985.28;4215979;28;5635;-63
2023/10/18 09:28:47;;;;;;;;;;;;;;;17.50;56.63;95980.75;4207427;28;5659;-63
2023/10/18 09:30:53;;;;;;;;;;;;;;;17.51;56.69;95982.34;4215925;28;6348;-63
2023/10/18 09:32:57;;;;;;;;;;;;;;;17.50;56.60;95979.94;4216001;28;5694;-64
2023/10/18 09:35:07;;;;;;;;;;;;;;;17.52;56.51;95978.63;4215444;28;5624;-64
2023/10/18 09:37:11;;;;;;;;;;;;;;;17.54;56.57;95970.34;4218995;28;5785;-63
2023/10/18 09:39:20;;;;;;;;;;;;;;;17.55;56.26;95974.63;4218687;28;5703;-63
2023/10/18 09:41:26;;;;;;;;;;;;;;;17.55;56.46;95977.28;4219107;28;5608;-63
2023/10/18 09:43:29;;;;;;;;;;;;;;;17.54;56.23;95981.84;4218835;28;6293;-64
2023/10/18 09:45:34;;;;;;;;;;;;;;;17.55;56.36;95978.09;4210695;28;6321;-62
2023/10/18 09:47:38;;;;;;;;;;;;;;;17.56;56.37;95969.06;4210632;28;5761;-62
2023/10/18 09:49:41;;;;;;;;;;;;;;;17.57;56.35;95970.66;4218550;28;5702;-63
2023/10/18 09:51:49;;;;;;;;;;;;;;;17.59;56.20;95957.84;4218443;28;6521;-62
2023/10/18 09:53:56;;;;;;;;;;;;;;;17.63;56.17;95964.28;4213508;28;5729;-62
2023/10/18 09:56:02;;;;;;;;;;;;;;;17.63;55.98;95968.81;4214777;28;5829;-63
2023/10/18 09:58:14;;;;;;;;;;;;;;;17.63;56.03;95964.28;4205568;28;5632;-63
2023/10/18 10:00:17;;;;;;;;;;;;;;;17.63;56.08;95955.44;4216581;28;5608;-63
2023/10/18 10:02:20;;;;;;;;;;;;;;;17.63;56.00;95958.13;4217369;28;6216;-63
2023/10/18 10:04:25;;;;;;;;;;;;;;;17.64;56.08;95955.19;4217955;28;5623;-63
2023/10/18 10:06:29;;;;;;;;;;;;;;;17.64;56.03;95962.41;4218299;28;5845;-63
2023/10/18 10:08:32;;;;;;;;;;;;;;;17.65;56.12;95956.78;4218338;28;5836;-62
2023/10/18 10:10:44;;;;;;;;;;;;;;;17.66;56.01;95955.72;4218351;28;5714;-62
2023/10/18 10:12:57;;;;;;;;;;;;;;;17.70;55.89;95961.41;4218469;28;5666;-62
2023/10/18 10:14:58;;;;;;;;;;;;;;;17.72;55.80;95953.94;4218536;28;5620;-62
2023/10/18 10:17:06;;;;;;;;;;;;;;;17.72;55.92;95941.38;4210028;28;5698;-62
2023/10/18 10:19:12;;;;;;;;;;;;;;;17.74;55.86;95946.47;4218303;28;5849;-63
2023/10/18 10:21:21;;;;;;;;;;;;;;;17.74;55.78;95949.13;4218377;28;5648;-63
2023/10/18 10:23:24;;;;;;;;;;;;;;;17.76;55.71;95947.00;4218460;28;5608;-63
2023/10/18 10:25:31;;;;;;;;;;;;;;;17.77;55.71;95945.94;4210084;28;5691;-63
2023/10/18 10:27:59;;;;;;;;;;;;;;;17.80;55.81;95953.47;4213416;28;5623;-63
2023/10/18 10:30:19;;;;;;;;;;;;;;;17.82;55.64;95956.66;4218130;28;5714;-63
2023/10/18 10:32:24;;;;;;;;;;;;;;;17.85;55.69;95950.78;4218155;28;5755;-63
2023/10/18 10:34:27;;;;;;;;;;;;;;;17.87;55.70;95948.66;4218088;28;5615;-63
2023/10/18 10:36:34;;;;;;;;;;;;;;;17.88;55.71;95939.56;4209403;28;5596;-63
2023/10/18 10:38:38;;;;;;;;;;;;;;;17.89;55.70;95943.84;4218274;28;6313;-63
2023/10/18 10:40:44;;;;;;;;;;;;;;;17.90;55.78;95942.81;4211168;28;5739;-63
2023/10/18 10:42:47;;;;;;;;;;;;;;;17.92;55.65;95945.22;4215841;28;5600;-63
2023/10/18 10:45:06;;;;;;;;;;;;;;;17.93;55.55;95938.81;4217906;28;5771;-63
2023/10/18 10:47:32;;;;;;;;;;;;;;;17.92;55.55;95929.19;4213553;28;5710;-63
2023/10/18 10:49:48;;;;;;;;;;;;;;;17.91;55.71;95916.88;4217735;28;5736;-63
2023/10/18 10:51:56;;;;;;;;;;;;;;;17.89;55.30;95914.44;4217716;28;5612;-63
2023/10/18 10:54:01;;;;;;;;;;;;;;;17.87;55.51;95921.94;4221497;28;7138;-63
2023/10/18 10:56:17;;;;;;;;;;;;;;;17.86;55.66;95914.16;4221349;28;5825;-63
2023/10/18 10:58:22;;;;;;;;;;;;;;;17.86;55.40;95920.31;4213704;28;5707;-63
2023/10/18 11:00:37;;;;;;;;;;;;;;;17.86;55.60;95911.50;4217508;28;5724;-63
2023/10/18 11:02:41;;;;;;;;;;;;;;;17.87;55.40;95921.13;4210563;28;5620;-63
2023/10/18 11:04:49;;;;;;;;;;;;;;;17.87;55.66;95911.22;4217639;28;5619;-63
2023/10/18 11:06:56;;;;;;;;;;;;;;;17.88;55.61;95907.50;4217430;28;5624;-63
2023/10/18 11:09:00;;;;;;;;;;;;;;;17.90;55.56;95909.94;4217495;28;6932;-62
2023/10/18 11:11:06;;;;;;;;;;;;;;;17.90;55.20;95900.03;4217539;28;5607;-63
2023/10/18 11:13:13;;;;;;;;;;;;;;;17.89;55.52;95898.41;4217575;28;5812;-63
2023/10/18 11:15:19;;;;;;;;;;;;;;;17.88;55.59;95910.16;4217439;28;5711;-63
2023/10/18 11:17:24;;;;;;;;;;;;;;;17.87;55.47;95897.88;4217594;28;5632;-63
2023/10/18 11:19:28;;;;;;;;;;;;;;;17.90;55.50;95902.72;4217464;28;5636;-63
2023/10/18 11:21:33;;;;;;;;;;;;;;;17.91;55.48;95898.97;4216516;28;5615;-64
2023/10/18 11:23:37;;;;;;;;;;;;;;;17.92;55.64;95900.56;4216608;28;5632;-62
2023/10/18 11:25:41;;;;;;;;;;;;;;;17.93;55.39;95893.34;4210046;28;5813;-63
2023/10/18 11:27:44;;;;;;;;;;;;;;;17.93;55.67;95888.00;4217080;28;5675;-64
2023/10/18 11:29:47;;;;;;;;;;;;;;;17.94;55.28;95885.06;4217240;28;5084;-63
2023/10/18 11:31:50;;;;;;;;;;;;;;;17.95;55.46;95880.53;4217238;28;5782;-62
2023/10/18 11:33:57;;;;;;;;;;;;;;;17.94;55.47;95879.72;4217367;28;5104;-64
2023/10/18 11:36:02;;;;;;;;;;;;;;;17.92;55.58;95873.84;4216874;28;5711;-64
2023/10/18 11:38:06;;;;;;;;;;;;;;;17.92;55.38;95881.06;4217152;28;5698;-63
2023/10/18 11:40:14;;;;;;;;;;;;;;;17.91;55.61;95877.59;4216980;28;5695;-63
2023/10/18 11:42:17;;;;;;;;;;;;;;;17.92;55.72;95876.50;4216313;28;5615;-63
2023/10/18 11:44:30;;;;;;;;;;;;;;;17.92;55.33;95881.06;4216042;28;5894;-64
2023/10/18 11:46:47;;;;;;;;;;;;;;;17.92;55.63;95878.38;4215071;28;5616;-65
2023/10/18 11:48:56;;;;;;;;;;;;;;;17.94;55.68;95877.06;4216851;28;5647;-63
2023/10/18 11:50:59;;;;;;;;;;;;;;;17.96;55.50;95872.25;4216916;28;5694;-63
2023/10/18 11:53:08;;;;;;;;;;;;;;;17.98;55.58;95866.63;4208616;28;5616;-63
2023/10/18 11:55:11;;;;;;;;;;;;;;;17.97;55.48;95873.84;4216728;28;5636;-63
2023/10/18 11:57:30;;;;;;;;;;;;;;;17.98;55.80;95870.09;4216473;28;5683;-63
2023/10/18 11:59:51;;;;;;;;;;;;;;;17.97;55.65;95875.72;4199617;28;5717;-63
2023/10/18 12:01:55;;;;;;;;;;;;;;;17.96;55.49;95868.75;4216715;28;5603;-63
2023/10/18 12:04:00;;;;;;;;;;;;;;;17.96;55.73;95860.75;4215898;28;5108;-63
2023/10/18 12:06:04;;;;;;;;;;;;;;;17.96;55.84;95856.19;4216593;28;5612;-63
2023/10/18 12:08:12;;;;;;;;;;;;;;;17.98;55.76;95854.06;4216780;28;5691;-63
2023/10/18 12:10:17;;;;;;;;;;;;;;;18.00;55.70;95846.56;4216421;28;5759;-62
2023/10/18 12:12:20;;;;;;;;;;;;;;;18.01;55.60;95840.19;4215703;28;5620;-62
2023/10/18 12:14:23;;;;;;;;;;;;;;;18.01;55.64;95842.84;4215013;28;5735;-63
2023/10/18 12:16:26;;;;;;;;;;;;;;;18.02;55.55;95839.13;4207828;28;5630;-63
2023/10/18 12:18:30;;;;;;;;;;;;;;;18.01;55.72;95829.50;4213533;28;5608;-63
2023/10/18 12:20:37;;;;;;;;;;;;;;;18.02;55.77;95836.44;4208535;28;5695;-62
2023/10/18 12:22:42;;;;;;;;;;;;;;;18.02;55.80;95828.41;4214992;28;5821;-62
2023/10/18 12:24:45;;;;;;;;;;;;;;;18.01;55.76;95821.47;4214580;28;5719;-63
2023/10/18 12:26:53;;;;;;;;;;;;;;;18.01;55.90;95821.47;4209011;28;5769;-63
2023/10/18 12:28:56;;;;;;;;;;;;;;;18.00;55.80;95819.84;4213914;28;5699;-63
2023/10/18 12:31:00;;;;;;;;;;;;;;;18.01;55.90;95831.34;4216027;28;5628;-63
2023/10/18 12:33:06;;;;;;;;;;;;;;;18.00;55.97;95840.41;4214888;28;5699;-63
2023/10/18 12:35:13;;;;;;;;;;;;;;;17.99;56.02;95828.91;4214808;28;5691;-63
2023/10/18 12:37:17;;;;;;;;;;;;;;;17.99;56.06;95826.25;4214554;28;5659;-62
2023/10/18 12:39:21;;;;;;;;;;;;;;;18.00;56.16;95822.50;4213055;28;5718;-63
2023/10/18 12:41:31;;;;;;;;;;;;;;;18.01;56.33;95807.28;4216123;28;5624;-63
2023/10/18 12:43:38;;;;;;;;;;;;;;;18.02;56.16;95790.97;4208157;28;5720;-63
2023/10/18 12:45:43;;;;;;;;;;;;;;;18.03;56.00;95789.09;4215339;28;5612;-63
2023/10/18 12:47:47;;;;;;;;;;;;;;;18.04;56.08;95788.03;4207693;28;5814;-62
2023/10/18 12:49:51;;;;;;;;;;;;;;;18.04;56.10;95783.50;4215131;28;5631;-64
2023/10/18 12:52:00;;;;;;;;;;;;;;;18.08;56.29;95788.31;4205936;28;5738;-63
2023/10/18 12:54:05;;;;;;;;;;;;;;;18.08;56.13;95788.31;4208128;28;5718;-63
2023/10/18 12:58:47;;;;;;;;;;;;;;;18.11;56.03;95774.38;4163123;28;5082;-62
2023/10/18 13:00:54;;;;;;;;;;;;;;;18.08;56.22;95773.06;4159042;28;5775;-63
2023/10/18 13:05:14;;;;;;;;;;;;;;;18.08;56.08;95761.56;4159321;28;6595;-63
2023/10/18 13:07:19;;;;;;;;;;;;;;;18.08;56.12;95759.69;4163470;28;5779;-63
2023/10/18 13:09:24;;;;;;;;;;;;;;;18.08;56.14;95757.00;4163318;28;5834;-62
2023/10/18 13:13:47;;;;;;;;;;;;;;;18.09;56.13;95741.75;4151339;28;6500;-63
2023/10/18 13:15:49;;;;;;;;;;;;;;;18.08;56.12;95738.28;4161003;28;6009;-63
2023/10/18 13:17:52;;;;;;;;;;;;;;;18.10;56.20;95732.66;4166538;28;5846;-62
2023/10/18 13:19:55;;;;;;;;;;;;;;;18.09;56.05;95731.06;4162214;28;5804;-62
2023/10/18 13:22:04;;;;;;;;;;;;;;;18.11;56.10;95728.94;4163651;28;5901;-63
2023/10/18 13:24:16;;;;;;;;;;;;;;;18.11;56.02;95720.91;4166558;28;5799;-61
2023/10/18 13:26:26;;;;;;;;;;;;;;;18.10;55.92;95714.75;4160786;28;5986;-63
2023/10/18 13:28:34;;;;;;;;;;;;;;;18.11;56.00;95719.03;4166589;28;5958;-61
2023/10/18 13:30:43;;;;;;;;;;;;;;;18.11;55.95;95723.56;4165560;28;5782;-62
2023/10/18 13:32:46;;;;;;;;;;;;;;;18.11;56.06;95723.56;4162989;28;5890;-61
2023/10/18 13:34:49;;;;;;;;;;;;;;;18.09;55.86;95717.69;4190266;28;5825;-63
2023/10/18 13:36:53;;;;;;;;;;;;;;;18.10;55.86;95719.28;4213924;28;5615;-63
2023/10/18 13:38:56;;;;;;;;;;;;;;;18.10;55.98;95725.44;4215202;28;5923;-61
2023/10/18 13:41:01;;;;;;;;;;;;;;;18.11;56.19;95723.56;4213609;28;6884;-62
2023/10/18 13:43:07;;;;;;;;;;;;;;;18.11;55.99;95715.56;4214544;28;5745;-62
2023/10/18 13:45:10;;;;;;;;;;;;;;;18.11;56.11;95719.03;4209303;28;5691;-63
2023/10/18 13:47:13;;;;;;;;;;;;;;;18.11;56.01;95721.69;4217351;28;5698;-63
2023/10/18 13:49:17;;;;;;;;;;;;;;;18.12;56.10;95719.81;4212612;28;5758;-62
2023/10/18 13:51:20;;;;;;;;;;;;;;;18.11;56.03;95724.38;4217174;28;5763;-63
2023/10/18 13:53:23;;;;;;;;;;;;;;;18.11;56.12;95729.72;4209850;28;5707;-61
2023/10/18 13:55:26;;;;;;;;;;;;;;;18.11;55.95;95720.91;4210288;28;6060;-61
2023/10/18 13:57:30;;;;;;;;;;;;;;;18.08;56.04;95714.22;4209592;28;5900;-62
2023/10/18 13:59:37;;;;;;;;;;;;;;;18.09;56.09;95709.66;4206790;28;5734;-61
2023/10/18 14:01:42;;;;;;;;;;;;;;;18.07;56.05;95711.81;4218432;28;5709;-62
2023/10/18 14:03:47;;;;;;;;;;;;;;;18.08;55.99;95713.41;4216085;28;5616;-61
2023/10/18 14:05:50;;;;;;;;;;;;;;;18.08;56.15;95710.75;4212099;28;5827;-61
2023/10/18 14:07:53;;;;;;;;;;;;;;;18.08;56.20;95702.72;4207445;28;5655;-61
2023/10/18 14:09:56;;;;;;;;;;;;;;;18.07;56.24;95693.91;4216823;28;6174;-61
2023/10/18 14:12:00;;;;;;;;;;;;;;;18.10;56.31;95692.56;4211597;28;5710;-62
2023/10/18 14:14:03;;;;;;;;;;;;;;;18.11;56.45;95694.16;4212341;28;5726;-64
2023/10/18 14:16:12;;;;;;;;;;;;;;;18.12;56.54;95687.72;4207494;28;5671;-61
2023/10/18 14:18:15;;;;;;;;;;;;;;;18.12;56.39;95677.03;4209868;28;5600;-62
2023/10/18 14:20:24;;;;;;;;;;;;;;;18.11;56.51;95681.59;4216925;28;5715;-62
2023/10/18 14:22:27;;;;;;;;;;;;;;;18.11;56.56;95686.13;4214892;28;5612;-61
2023/10/18 14:24:31;;;;;;;;;;;;;;;18.11;56.62;95686.13;4216723;28;5719;-62
2023/10/18 14:26:34;;;;;;;;;;;;;;;18.10;56.60;95685.31;4209070;28;5683;-61
2023/10/18 14:28:37;;;;;;;;;;;;;;;18.11;56.85;95680.78;4217212;28;5667;-60
2023/10/18 14:30:40;;;;;;;;;;;;;;;18.10;56.70;95677.31;4209753;28;5738;-61
2023/10/18 14:32:45;;;;;;;;;;;;;;;18.11;56.90;95680.78;4212529;28;5791;-61
2023/10/18 14:34:50;;;;;;;;;;;;;;;18.09;56.91;95669.56;4217886;28;5687;-61
2023/10/18 14:36:53;;;;;;;;;;;;;;;18.09;56.86;95672.22;4210275;28;5703;-61
2023/10/18 14:38:56;;;;;;;;;;;;;;;18.09;57.11;95661.53;4211811;28;5703;-62
2023/10/18 14:40:59;;;;;;;;;;;;;;;18.09;56.97;95667.69;4215354;28;5829;-62
2023/10/18 14:43:13;;;;;;;;;;;;;;;18.08;57.40;95660.72;4215533;28;5608;-61
2023/10/18 14:45:16;;;;;;;;;;;;;;;18.07;57.31;95648.44;4211100;28;5757;-61
2023/10/18 14:47:19;;;;;;;;;;;;;;;18.07;57.46;95655.66;4213881;28;5684;-62
2023/10/18 14:49:23;;;;;;;;;;;;;;;18.06;57.46;95662.88;4204489;28;5845;-60
2023/10/18 14:51:26;;;;;;;;;;;;;;;18.07;57.41;95648.44;4216575;28;5718;-60
2023/10/18 14:53:31;;;;;;;;;;;;;;;18.08;57.23;95643.88;4215846;28;5695;-60
2023/10/18 14:55:37;;;;;;;;;;;;;;;18.08;57.37;95649.22;4207851;28;7044;-60
2023/10/18 14:57:40;;;;;;;;;;;;;;;18.07;57.51;95648.44;4208138;28;5821;-62
2023/10/18 14:59:43;;;;;;;;;;;;;;;18.09;57.49;95658.84;4211127;28;5080;-60
2023/10/18 15:01:46;;;;;;;;;;;;;;;18.09;57.72;95646.28;4192783;28;5724;-62
2023/10/18 15:03:49;;;;;;;;;;;;;;;18.10;57.71;95647.88;4212554;28;5758;-61
2023/10/18 15:05:55;;;;;;;;;;;;;;;18.09;57.60;95646.28;4188061;28;5762;-60
2023/10/18 15:07:58;;;;;;;;;;;;;;;18.10;57.75;95644.41;4208490;28;5692;-60
2023/10/18 15:10:02;;;;;;;;;;;;;;;18.11;57.76;95643.34;4212867;28;5699;-62
2023/10/18 15:12:06;;;;;;;;;;;;;;;18.09;57.64;95638.25;4208462;28;5742;-62
2023/10/18 15:14:11;;;;;;;;;;;;;;;18.09;57.76;95640.13;4212697;28;5819;-61
2023/10/18 15:16:15;;;;;;;;;;;;;;;18.09;57.72;95634.78;4207148;28;5714;-61
2023/10/18 15:18:18;;;;;;;;;;;;;;;18.08;57.76;95631.31;4205609;28;5640;-61
2023/10/18 15:20:22;;;;;;;;;;;;;;;18.08;57.97;95627.84;4215203;28;5663;-59
2023/10/18 15:22:27;;;;;;;;;;;;;;;18.07;57.88;95627.03;4216193;28;5636;-61
2023/10/18 15:24:36;;;;;;;;;;;;;;;18.08;57.82;95627.84;4210301;28;5838;-60
2023/10/18 15:26:38;;;;;;;;;;;;;;;18.08;57.76;95630.50;4213971;28;5823;-61
2023/10/18 15:28:41;;;;;;;;;;;;;;;18.08;57.90;95635.84;4206551;28;5880;-61
2023/10/18 15:30:45;;;;;;;;;;;;;;;18.06;57.96;95629.97;4209706;28;5726;-62
2023/10/18 15:32:48;;;;;;;;;;;;;;;18.07;57.84;95626.25;4212566;28;5696;-62
2023/10/18 15:34:52;;;;;;;;;;;;;;;18.06;58.08;95619.28;4210988;28;5189;-62
2023/10/18 15:36:57;;;;;;;;;;;;;;;18.06;58.07;95630.78;4203072;28;5647;-62
2023/10/18 15:39:01;;;;;;;;;;;;;;;18.04;58.07;95624.91;4204813;28;5717;-61
2023/10/18 15:41:08;;;;;;;;;;;;;;;18.04;58.08;95627.59;4207746;28;5855;-60
2023/10/18 15:43:11;;;;;;;;;;;;;;;18.04;58.19;95623.03;4213924;28;5616;-60
2023/10/18 15:45:17;;;;;;;;;;;;;;;18.02;58.10;95625.19;4207810;28;5722;-61
2023/10/18 15:47:20;;;;;;;;;;;;;;;18.01;58.09;95623.56;4207819;28;5686;-61
2023/10/18 15:49:23;;;;;;;;;;;;;;;18.01;58.29;95623.56;4209495;28;5608;-62
2023/10/18 15:51:27;;;;;;;;;;;;;;;18.01;58.30;95622.78;4214869;28;5711;-61
2023/10/18 15:53:30;;;;;;;;;;;;;;;17.99;58.32;95620.34;4193597;28;5699;-61
2023/10/18 15:55:41;;;;;;;;;;;;;;;17.99;58.16;95619.53;4206932;28;5737;-61
2023/10/18 15:57:44;;;;;;;;;;;;;;;17.99;58.57;95625.69;4213466;28;5839;-61
2023/10/18 15:59:48;;;;;;;;;;;;;;;17.97;58.37;95622.50;4215330;28;5136;-61
2023/10/18 16:01:51;;;;;;;;;;;;;;;17.96;58.49;95622.75;4209959;28;5658;-61
2023/10/18 16:04:01;;;;;;;;;;;;;;;17.96;58.43;95615.53;4209661;28;5782;-61
2023/10/18 16:06:05;;;;;;;;;;;;;;;17.96;58.57;95620.88;4207088;28;5084;-61
2023/10/18 16:08:08;;;;;;;;;;;;;;;17.96;58.57;95623.56;4215276;28;5731;-62
2023/10/18 16:10:11;;;;;;;;;;;;;;;17.95;58.67;95618.50;4216203;28;5616;-61
2023/10/18 16:12:16;;;;;;;;;;;;;;;17.93;58.42;95613.41;4210714;28;6638;-62
2023/10/18 16:14:18;;;;;;;;;;;;;;;17.92;58.64;95616.34;4214306;28;5732;-62